Terminal Aerodrome Forecast
Issued by NWS South Bend, IN

Home | Current Version | Previous Version | Text Only | Print | Product List | Glossary On
Versions: 1 2 3 4 5 6 7 8 9 10 11 12 13 14 15 16 17
000
FTUS43 KIWX 051100
TAFSBN
TAF
KSBN 051121Z 0512/0612 07006KT 2SM -SHRA BR BKN009 OVC025
      TEMPO 0512/0514 1 1/2SM TSRA BR SCT008 OVC030CB
     FM051400 11008KT 3SM -SHRA BR SCT008 OVC015
      TEMPO 0514/0518 2SM SHRA BR OVC008
     FM052200 11006KT 5SM BR OVC020
     FM060700 VRB03KT 3SM BR BKN035
      TEMPO 0609/0612 1SM BR=

USA.gov is the U.S. government's official web portal to all federal, state and local government web resources and services.